createdAt,value
2024-04-23T00:00:58.010Z,894.00
2024-04-23T00:01:58.027Z,895.00
2024-04-23T00:02:58.040Z,897.00
2024-04-23T00:03:58.079Z,899.00
2024-04-23T00:04:58.104Z,898.00
2024-04-23T00:05:58.118Z,896.00
2024-04-23T00:06:58.137Z,898.00
2024-04-23T00:07:58.255Z,896.00
2024-04-23T00:08:58.182Z,895.00
2024-04-23T00:09:58.216Z,896.00
2024-04-23T00:10:58.278Z,894.00
2024-04-23T00:11:58.275Z,894.00
2024-04-23T00:12:58.293Z,894.00
2024-04-23T00:13:58.397Z,894.00
2024-04-23T00:14:58.353Z,892.00
2024-04-23T00:15:58.373Z,891.00
2024-04-23T00:16:58.460Z,892.00
2024-04-23T00:17:58.558Z,891.00
2024-04-23T00:18:58.459Z,889.00
2024-04-23T00:19:58.590Z,888.00
2024-04-23T00:20:58.503Z,886.00
2024-04-23T00:21:58.542Z,886.00
2024-04-23T00:22:58.647Z,887.00
2024-04-23T00:23:58.587Z,888.00
2024-04-23T00:24:59.570Z,888.00
2024-04-23T00:25:58.703Z,888.00
2024-04-23T00:26:58.683Z,886.00
2024-04-23T00:27:59.133Z,884.00
2024-04-23T00:28:58.750Z,884.00
2024-04-23T00:29:58.730Z,884.00
2024-04-23T00:30:58.756Z,884.00
2024-04-23T00:31:59.023Z,886.00
2024-04-23T00:32:58.927Z,886.00
2024-04-23T00:33:58.828Z,886.00
2024-04-23T00:34:58.964Z,885.00
2024-04-23T00:35:58.893Z,884.00
2024-04-23T00:36:58.978Z,885.00
2024-04-23T00:37:58.950Z,884.00
2024-04-23T00:38:58.959Z,886.00
2024-04-23T00:39:58.991Z,885.00
2024-04-23T00:40:59.037Z,885.00
2024-04-23T00:41:59.054Z,887.00
2024-04-23T00:42:59.074Z,885.00
2024-04-23T00:43:59.183Z,885.00
2024-04-23T00:44:59.148Z,887.00
2024-04-23T00:45:59.180Z,885.00
2024-04-23T00:46:59.367Z,883.00
2024-04-23T00:47:59.359Z,882.00
2024-04-23T00:48:59.261Z,881.00
2024-04-23T00:49:59.384Z,881.00
2024-04-23T00:50:59.342Z,880.00
2024-04-23T00:51:59.362Z,883.00
2024-04-23T00:52:59.432Z,883.00
2024-04-23T00:53:59.420Z,881.00
2024-04-23T00:54:59.454Z,882.00
2024-04-23T00:55:59.554Z,883.00
2024-04-23T00:56:59.519Z,880.00
2024-04-23T00:57:59.538Z,878.00
2024-04-23T00:58:59.655Z,879.00
2024-04-23T00:59:59.609Z,880.00
2024-04-23T01:00:59.662Z,881.00
2024-04-23T01:01:59.726Z,879.00
2024-04-23T01:02:59.768Z,879.00
2024-04-23T01:03:59.767Z,880.00
2024-04-23T01:04:59.848Z,880.00
2024-04-23T01:06:00.573Z,879.00
2024-04-23T01:06:59.810Z,877.00
2024-04-23T01:07:59.858Z,874.00
2024-04-23T01:08:59.870Z,874.00
2024-04-23T01:09:59.905Z,873.00
2024-04-23T01:10:59.967Z,872.00
2024-04-23T01:11:59.987Z,873.00
2024-04-23T01:13:00.005Z,874.00
2024-04-23T01:14:00.123Z,875.00
2024-04-23T01:15:00.055Z,875.00
2024-04-23T01:16:00.093Z,874.00
2024-04-23T01:17:00.186Z,875.00
2024-04-23T01:18:00.684Z,873.00
2024-04-23T01:19:00.158Z,876.00
2024-04-23T01:20:00.620Z,875.00
2024-04-23T01:21:00.204Z,878.00
2024-04-23T01:22:00.212Z,878.00
2024-04-23T01:23:00.388Z,877.00
2024-04-23T01:24:00.265Z,878.00
2024-04-23T01:25:00.302Z,876.00
2024-04-23T01:26:00.423Z,877.00
2024-04-23T01:27:00.350Z,874.00
2024-04-23T01:28:00.609Z,875.00
2024-04-23T01:29:00.500Z,877.00
2024-04-23T01:30:00.519Z,878.00
2024-04-23T01:31:00.520Z,875.00
2024-04-23T01:32:00.608Z,876.00
2024-04-23T01:33:00.622Z,875.00
2024-04-23T01:34:00.498Z,876.00
2024-04-23T01:35:00.550Z,877.00
2024-04-23T01:36:00.542Z,874.00
2024-04-23T01:37:00.541Z,872.00
2024-04-23T01:38:00.675Z,871.00
2024-04-23T01:39:00.604Z,871.00
2024-04-23T01:40:00.598Z,870.00
2024-04-23T01:41:00.660Z,866.00
2024-04-23T01:42:00.698Z,868.00
2024-04-23T01:43:00.697Z,867.00
2024-04-23T01:44:00.691Z,869.00
2024-04-23T01:45:00.650Z,869.00
2024-04-23T01:46:00.718Z,869.00
2024-04-23T01:47:00.970Z,866.00
2024-04-23T01:48:00.853Z,868.00
2024-04-23T01:49:00.699Z,863.00
2024-04-23T01:50:00.783Z,864.00
2024-04-23T01:51:01.585Z,862.00
2024-04-23T01:52:00.724Z,862.00
2024-04-23T01:53:00.737Z,860.00
2024-04-23T01:54:00.742Z,859.00
2024-04-23T01:55:00.753Z,862.00
2024-04-23T01:56:00.784Z,861.00
2024-04-23T01:57:00.847Z,861.00
2024-04-23T01:58:00.767Z,859.00
2024-04-23T01:59:03.652Z,859.00
2024-04-23T02:00:00.797Z,859.00
2024-04-23T02:01:00.834Z,860.00
2024-04-23T02:02:00.906Z,861.00
2024-04-23T02:03:00.914Z,865.00
2024-04-23T02:04:00.797Z,869.00
2024-04-23T02:05:00.871Z,868.00
2024-04-23T02:06:00.792Z,869.00
2024-04-23T02:07:00.798Z,869.00
2024-04-23T02:08:00.886Z,869.00
2024-04-23T02:09:03.762Z,871.00
2024-04-23T02:10:00.804Z,870.00
2024-04-23T02:11:00.856Z,870.00
2024-04-23T02:12:00.808Z,866.00
2024-04-23T02:13:00.835Z,866.00
2024-04-23T02:14:00.842Z,865.00
2024-04-23T02:15:00.800Z,864.00
2024-04-23T02:16:00.806Z,863.00
2024-04-23T02:17:01.290Z,861.00
2024-04-23T02:18:00.896Z,863.00
2024-04-23T02:19:00.799Z,864.00
2024-04-23T02:20:00.911Z,862.00
2024-04-23T02:21:00.790Z,863.00
2024-04-23T02:22:00.805Z,859.00
2024-04-23T02:23:00.910Z,860.00
2024-04-23T02:24:00.805Z,859.00
2024-04-23T02:25:00.811Z,860.00
2024-04-23T02:26:00.936Z,861.00
2024-04-23T02:27:00.806Z,859.00
2024-04-23T02:28:00.884Z,856.00
2024-04-23T02:29:00.818Z,859.00
2024-04-23T02:30:00.882Z,859.00
2024-04-23T02:31:00.810Z,858.00
2024-04-23T02:32:00.849Z,856.00
2024-04-23T02:33:00.874Z,856.00
2024-04-23T02:34:00.810Z,856.00
2024-04-23T02:35:00.843Z,857.00
2024-04-23T02:36:00.821Z,856.00
2024-04-23T02:37:00.808Z,857.00
2024-04-23T02:38:00.850Z,853.00
2024-04-23T02:39:00.823Z,851.00
2024-04-23T02:40:03.746Z,852.00
2024-04-23T02:41:00.898Z,850.00
2024-04-23T02:42:00.872Z,847.00
2024-04-23T02:43:00.813Z,847.00
2024-04-23T02:44:00.849Z,850.00
2024-04-23T02:45:00.806Z,846.00
2024-04-23T02:46:00.820Z,846.00
2024-04-23T02:47:01.681Z,847.00
2024-04-23T02:48:00.936Z,848.00
2024-04-23T02:49:00.809Z,848.00
2024-04-23T02:50:01.108Z,847.00
2024-04-23T02:51:00.818Z,845.00
2024-04-23T02:52:00.834Z,845.00
2024-04-23T02:53:00.915Z,848.00
2024-04-23T02:54:00.947Z,853.00
2024-04-23T02:55:00.999Z,853.00
2024-04-23T02:56:01.108Z,850.00
2024-04-23T02:57:01.128Z,850.00
2024-04-23T02:58:01.219Z,849.00
2024-04-23T02:59:01.305Z,849.00
2024-04-23T03:00:01.350Z,849.00
2024-04-23T03:01:01.417Z,849.00
2024-04-23T03:02:01.582Z,851.00
2024-04-23T03:03:01.602Z,853.00
2024-04-23T03:04:01.607Z,854.00
2024-04-23T03:05:01.767Z,853.00
2024-04-23T03:06:01.735Z,852.00
2024-04-23T03:07:01.820Z,851.00
2024-04-23T03:08:02.705Z,849.00
2024-04-23T03:09:01.934Z,847.00
2024-04-23T03:10:02.164Z,848.00
2024-04-23T03:11:02.259Z,849.00
2024-04-23T03:12:02.151Z,851.00
2024-04-23T03:13:02.213Z,852.00
2024-04-23T03:14:02.343Z,853.00
2024-04-23T03:15:02.318Z,854.00
2024-04-23T03:16:04.115Z,855.00
2024-04-23T03:17:02.464Z,853.00
2024-04-23T03:18:02.488Z,851.00
2024-04-23T03:19:02.409Z,851.00
2024-04-23T03:20:02.460Z,852.00
2024-04-23T03:21:02.397Z,848.00
2024-04-23T03:22:02.398Z,850.00
2024-04-23T03:23:02.469Z,851.00
2024-04-23T03:24:02.392Z,848.00
2024-04-23T03:25:02.473Z,844.00
2024-04-23T03:26:02.498Z,843.00
2024-04-23T03:27:02.408Z,842.00
2024-04-23T03:28:02.395Z,841.00
2024-04-23T03:29:02.492Z,841.00
2024-04-23T03:30:02.392Z,839.00
2024-04-23T03:31:02.402Z,836.00
2024-04-23T03:32:02.848Z,836.00
2024-04-23T03:33:02.498Z,837.00
2024-04-23T03:34:02.406Z,839.00
2024-04-23T03:35:02.548Z,841.00
2024-04-23T03:36:02.401Z,842.00
2024-04-23T03:37:02.391Z,843.00
2024-04-23T03:38:02.537Z,845.00
2024-04-23T03:39:02.388Z,845.00
2024-04-23T03:40:02.392Z,844.00
2024-04-23T03:41:02.538Z,842.00
2024-04-23T03:42:02.431Z,842.00
2024-04-23T03:43:02.404Z,838.00
2024-04-23T03:44:02.637Z,842.00
2024-04-23T03:45:02.547Z,843.00
2024-04-23T03:46:02.620Z,843.00
2024-04-23T03:47:02.755Z,841.00
2024-04-23T03:48:02.804Z,841.00
2024-04-23T03:49:02.820Z,840.00
2024-04-23T03:50:03.002Z,840.00
2024-04-23T03:51:02.934Z,839.00
2024-04-23T03:52:03.001Z,842.00
2024-04-23T03:53:03.714Z,844.00
2024-04-23T03:54:03.119Z,838.00
2024-04-23T03:55:03.190Z,837.00
2024-04-23T03:56:03.381Z,836.00
2024-04-23T03:57:03.351Z,835.00
2024-04-23T03:58:03.389Z,838.00
2024-04-23T03:59:03.477Z,839.00
2024-04-23T04:00:03.511Z,838.00
2024-04-23T04:01:03.618Z,837.00
2024-04-23T04:02:03.735Z,835.00
2024-04-23T04:03:03.725Z,836.00
2024-04-23T04:04:03.859Z,839.00
2024-04-23T04:05:03.877Z,840.00
2024-04-23T04:06:03.908Z,841.00
2024-04-23T04:07:03.966Z,844.00
2024-04-23T04:08:04.135Z,844.00
2024-04-23T04:09:04.136Z,841.00
2024-04-23T04:10:04.171Z,838.00
2024-04-23T04:11:04.286Z,835.00
2024-04-23T04:12:04.301Z,833.00
2024-04-23T04:13:13.210Z,833.00
2024-04-23T04:14:05.530Z,833.00
2024-04-23T04:15:04.375Z,834.00
2024-04-23T04:16:04.394Z,835.00
2024-04-23T04:17:04.460Z,838.00
2024-04-23T04:18:04.468Z,838.00
2024-04-23T04:19:04.426Z,836.00
2024-04-23T04:20:04.495Z,834.00
2024-04-23T04:21:04.375Z,833.00
2024-04-23T04:22:04.451Z,836.00
2024-04-23T04:23:11.735Z,829.00
2024-04-23T04:24:11.688Z,833.00
2024-04-23T04:25:11.724Z,837.00
2024-04-23T04:26:11.745Z,838.00
2024-04-23T04:27:11.721Z,841.00
2024-04-23T04:28:11.760Z,842.00
2024-04-23T04:29:11.747Z,841.00
2024-04-23T04:30:11.798Z,842.00
2024-04-23T04:31:19.053Z,834.00
2024-04-23T04:32:19.177Z,836.00
2024-04-23T04:33:19.205Z,839.00
2024-04-23T04:34:21.768Z,837.00
2024-04-23T04:35:19.076Z,834.00
2024-04-23T04:36:19.079Z,833.00
2024-04-23T04:37:19.091Z,832.00
2024-04-23T04:38:19.071Z,834.00
2024-04-23T04:39:19.086Z,833.00
2024-04-23T04:40:19.101Z,833.00
2024-04-23T04:41:19.095Z,832.00
2024-04-23T04:42:19.080Z,833.00
2024-04-23T04:43:19.084Z,833.00
2024-04-23T04:44:19.074Z,834.00
2024-04-23T04:45:19.637Z,832.00
2024-04-23T04:46:19.631Z,829.00
2024-04-23T04:47:19.154Z,827.00
2024-04-23T04:48:19.133Z,829.00
2024-04-23T04:49:19.082Z,832.00
2024-04-23T04:50:19.267Z,834.00
2024-04-23T04:51:19.089Z,834.00
2024-04-23T04:52:19.114Z,834.00
2024-04-23T04:53:19.145Z,834.00
2024-04-23T04:54:19.162Z,835.00
2024-04-23T04:55:19.115Z,836.00
2024-04-23T04:56:19.117Z,838.00
2024-04-23T04:57:19.095Z,839.00
2024-04-23T04:58:19.117Z,839.00
2024-04-23T04:59:19.128Z,839.00
2024-04-23T05:00:19.119Z,842.00
2024-04-23T05:01:19.118Z,839.00
2024-04-23T05:02:19.147Z,838.00
2024-04-23T05:03:19.114Z,838.00
2024-04-23T05:04:19.169Z,835.00
2024-04-23T05:05:19.131Z,833.00
2024-04-23T05:06:19.154Z,833.00
2024-04-23T05:07:19.191Z,833.00
2024-04-23T05:08:19.125Z,834.00
2024-04-23T05:09:19.123Z,831.00
2024-04-23T05:10:19.118Z,830.00
2024-04-23T05:11:19.131Z,828.00
2024-04-23T05:12:19.164Z,826.00
2024-04-23T05:13:19.195Z,827.00
2024-04-23T05:14:19.124Z,828.00
2024-04-23T05:15:19.195Z,830.00
2024-04-23T05:16:19.279Z,827.00
2024-04-23T05:17:19.400Z,825.00
2024-04-23T05:18:19.417Z,825.00
2024-04-23T05:19:19.437Z,824.00
2024-04-23T05:20:19.499Z,830.00
2024-04-23T05:21:19.583Z,845.00
2024-04-23T05:22:19.610Z,854.00
2024-04-23T05:23:19.690Z,861.00
2024-04-23T05:24:19.741Z,875.00
2024-04-23T05:25:19.818Z,997.00
2024-04-23T05:26:19.894Z,1010.00
2024-04-23T05:27:19.937Z,1018.00
2024-04-23T05:28:20.011Z,1031.00
2024-04-23T05:29:20.070Z,1095.00
2024-04-23T05:30:20.132Z,1206.00
2024-04-23T05:31:20.174Z,1222.00
2024-04-23T05:32:20.708Z,1246.00
2024-04-23T05:33:20.317Z,1271.00
2024-04-23T05:34:20.272Z,1307.00
2024-04-23T05:35:20.279Z,1355.00
2024-04-23T05:36:20.313Z,1379.00
2024-04-23T05:37:20.362Z,1395.00
2024-04-23T05:38:20.411Z,1420.00
2024-04-23T05:39:20.379Z,1497.00
2024-04-23T05:40:20.380Z,1517.00
2024-04-23T05:41:20.417Z,1532.00
2024-04-23T05:42:20.488Z,1588.00
2024-04-23T05:43:20.541Z,1632.00
2024-04-23T05:44:23.368Z,1650.00
2024-04-23T05:45:20.639Z,1631.00
2024-04-23T05:46:20.601Z,1433.00
2024-04-23T05:47:20.690Z,1301.00
2024-04-23T05:48:20.697Z,1130.00
2024-04-23T05:49:20.589Z,1007.00
2024-04-23T05:50:26.112Z,1002.00
2024-04-23T05:51:21.604Z,997.00
2024-04-23T05:52:29.519Z,951.00
2024-04-23T05:53:21.661Z,958.00
2024-04-23T05:54:20.602Z,974.00
2024-04-23T05:55:20.621Z,970.00
2024-04-23T05:56:20.626Z,932.00
2024-04-23T05:57:20.724Z,916.00
2024-04-23T05:58:20.606Z,909.00
2024-04-23T05:59:20.623Z,893.00
2024-04-23T06:00:21.152Z,882.00
2024-04-23T06:01:20.706Z,850.00
2024-04-23T06:02:20.630Z,845.00
2024-04-23T06:03:20.700Z,844.00
2024-04-23T06:04:20.643Z,851.00
2024-04-23T06:05:20.627Z,845.00
2024-04-23T06:06:20.692Z,843.00
2024-04-23T06:07:20.626Z,839.00
2024-04-23T06:08:20.718Z,826.00
2024-04-23T06:09:20.628Z,816.00
2024-04-23T06:10:20.641Z,808.00
2024-04-23T06:11:20.693Z,799.00
2024-04-23T06:12:20.673Z,792.00
2024-04-23T06:13:20.783Z,788.00
2024-04-23T06:14:20.751Z,789.00
2024-04-23T06:15:20.782Z,796.00
2024-04-23T06:16:20.843Z,826.00
2024-04-23T06:17:28.689Z,804.00
2024-04-23T06:18:21.966Z,852.00
2024-04-23T06:19:20.895Z,859.00
2024-04-23T06:20:20.894Z,934.00
2024-04-23T06:21:20.963Z,998.00
2024-04-23T06:22:20.908Z,1113.00
2024-04-23T06:23:21.174Z,1134.00
2024-04-23T06:24:20.928Z,1156.00
2024-04-23T06:25:21.585Z,1230.00
2024-04-23T06:26:20.890Z,1269.00
2024-04-23T06:27:21.665Z,1305.00
2024-04-23T06:28:20.894Z,1328.00
2024-04-23T06:29:20.895Z,1403.00
2024-04-23T06:30:20.964Z,1439.00
2024-04-23T06:31:21.576Z,1462.00
2024-04-23T06:32:23.152Z,1473.00
2024-04-23T06:33:21.022Z,1482.00
2024-04-23T06:34:21.656Z,1508.00
2024-04-23T06:35:20.989Z,1544.00
2024-04-23T06:36:21.003Z,1574.00
2024-04-23T06:37:21.528Z,1601.00
2024-04-23T06:38:21.036Z,1617.00
2024-04-23T06:39:21.135Z,1675.00
2024-04-23T06:40:21.161Z,1693.00
2024-04-23T06:41:21.313Z,1719.00
2024-04-23T06:42:21.270Z,1797.00
2024-04-23T06:43:21.317Z,1737.00
2024-04-23T06:44:21.341Z,1403.00
2024-04-23T06:45:21.361Z,1317.00
2024-04-23T06:46:21.372Z,1259.00
2024-04-23T06:47:21.550Z,1492.00
2024-04-23T06:48:21.490Z,1438.00
2024-04-23T06:49:21.442Z,1425.00
2024-04-23T06:50:21.473Z,1454.00
2024-04-23T06:51:21.495Z,1533.00
2024-04-23T06:52:22.173Z,1577.00
2024-04-23T06:53:21.526Z,1607.00
2024-04-23T06:54:21.603Z,1635.00
2024-04-23T06:55:21.526Z,1676.00
2024-04-23T06:56:21.558Z,1727.00
2024-04-23T06:57:21.553Z,1763.00
2024-04-23T06:58:24.318Z,1793.00
2024-04-23T06:59:21.563Z,1873.00
2024-04-23T07:00:21.549Z,1897.00
2024-04-23T07:01:21.677Z,1927.00
2024-04-23T07:02:21.687Z,1929.00
2024-04-23T07:03:21.602Z,1457.00
2024-04-23T07:04:21.558Z,1319.00
2024-04-23T07:05:21.560Z,1278.00
2024-04-23T07:06:21.569Z,1206.00
2024-04-23T07:07:21.565Z,1638.00
2024-04-23T07:08:21.650Z,1661.00
2024-04-23T07:09:21.574Z,1563.00
2024-04-23T07:10:22.185Z,1542.00
2024-04-23T07:11:21.695Z,1539.00
2024-04-23T07:12:21.571Z,1547.00
2024-04-23T07:13:21.606Z,1553.00
2024-04-23T07:14:21.569Z,1564.00
2024-04-23T07:15:22.551Z,1563.00
2024-04-23T07:16:21.568Z,1634.00
2024-04-23T07:17:21.632Z,1655.00
2024-04-23T07:18:21.663Z,1658.00
2024-04-23T07:19:21.572Z,1785.00
2024-04-23T07:20:21.651Z,1747.00
2024-04-23T07:21:21.573Z,1768.00
2024-04-23T07:22:21.628Z,1823.00
2024-04-23T07:23:21.578Z,1832.00
2024-04-23T07:24:21.606Z,1512.00
2024-04-23T07:25:24.666Z,1381.00
2024-04-23T07:26:21.598Z,1290.00
2024-04-23T07:27:22.191Z,1262.00
2024-04-23T07:28:21.583Z,1173.00
2024-04-23T07:29:21.591Z,1140.00
2024-04-23T07:30:21.572Z,1076.00
2024-04-23T07:31:21.600Z,1037.00
2024-04-23T07:32:21.624Z,992.00
2024-04-23T07:33:21.742Z,945.00
2024-04-23T07:34:21.582Z,917.00
2024-04-23T07:35:21.718Z,903.00
2024-04-23T07:36:21.583Z,891.00
2024-04-23T07:37:21.586Z,878.00
2024-04-23T07:38:21.590Z,866.00
2024-04-23T07:39:21.653Z,818.00
2024-04-23T07:40:22.186Z,807.00
2024-04-23T07:41:21.604Z,801.00
2024-04-23T07:42:21.605Z,809.00
2024-04-23T07:43:23.349Z,802.00
2024-04-23T07:44:21.620Z,796.00
2024-04-23T07:45:21.600Z,792.00
2024-04-23T07:46:21.634Z,788.00
2024-04-23T07:47:21.691Z,781.00
2024-04-23T07:48:21.701Z,768.00
2024-04-23T07:49:21.591Z,753.00
2024-04-23T07:50:21.665Z,744.00
2024-04-23T07:51:21.598Z,739.00
2024-04-23T07:52:21.593Z,752.00
2024-04-23T07:53:21.693Z,820.00
2024-04-23T07:54:21.628Z,877.00
2024-04-23T07:55:21.604Z,904.00
2024-04-23T07:56:21.620Z,953.00
2024-04-23T07:57:21.600Z,995.00
2024-04-23T07:58:21.597Z,1017.00
2024-04-23T07:59:21.689Z,1037.00
2024-04-23T08:00:21.604Z,1057.00
2024-04-23T08:01:21.619Z,1081.00
2024-04-23T08:02:22.796Z,1109.00
2024-04-23T08:03:21.708Z,1151.00
2024-04-23T08:04:21.707Z,1168.00
2024-04-23T08:05:21.611Z,1226.00
2024-04-23T08:06:21.621Z,1239.00
2024-04-23T08:07:21.614Z,1246.00
2024-04-23T08:08:21.606Z,1256.00
2024-04-23T08:09:21.614Z,1269.00
2024-04-23T08:10:21.685Z,1266.00
2024-04-23T08:11:21.698Z,1295.00
2024-04-23T08:12:21.622Z,1262.00
2024-04-23T08:13:21.617Z,1109.00
2024-04-23T08:14:21.627Z,1095.00
2024-04-23T08:15:21.690Z,1079.00
2024-04-23T08:16:21.637Z,974.00
2024-04-23T08:17:21.750Z,965.00
2024-04-23T08:18:21.730Z,949.00
2024-04-23T08:19:21.627Z,757.00
2024-04-23T08:20:22.201Z,768.00
2024-04-23T08:21:21.638Z,758.00
2024-04-23T08:22:21.694Z,770.00
2024-04-23T08:23:21.718Z,952.00
2024-04-23T08:24:21.671Z,1050.00
2024-04-23T08:25:21.658Z,1066.00
2024-04-23T08:26:21.703Z,1075.00
2024-04-23T08:27:21.735Z,1165.00
2024-04-23T08:28:21.795Z,1228.00
2024-04-23T08:29:21.923Z,1299.00
2024-04-23T08:30:21.912Z,1328.00
2024-04-23T08:31:21.980Z,1327.00
2024-04-23T08:32:22.119Z,1325.00
2024-04-23T08:33:22.086Z,1364.00
2024-04-23T08:34:22.088Z,1446.00
2024-04-23T08:35:22.171Z,1459.00
2024-04-23T08:36:22.098Z,1478.00
2024-04-23T08:37:22.118Z,1487.00
2024-04-23T08:38:22.140Z,1508.00
2024-04-23T08:39:22.185Z,1537.00
2024-04-23T08:40:22.281Z,1549.00
2024-04-23T08:41:22.182Z,1578.00
2024-04-23T08:42:22.227Z,1599.00
2024-04-23T08:43:22.287Z,1621.00
2024-04-23T08:44:22.419Z,1636.00
2024-04-23T08:45:22.423Z,1644.00
2024-04-23T08:46:22.519Z,1667.00
2024-04-23T08:47:22.750Z,1669.00
2024-04-23T08:48:22.696Z,1682.00
2024-04-23T08:49:22.708Z,1715.00
2024-04-23T08:50:22.887Z,1735.00
2024-04-23T08:51:22.905Z,1749.00
2024-04-23T08:52:23.828Z,1765.00
2024-04-23T08:53:22.827Z,1819.00
2024-04-23T08:54:22.857Z,1584.00
2024-04-23T08:55:22.833Z,1432.00
2024-04-23T08:56:22.827Z,1354.00
2024-04-23T08:57:22.827Z,1245.00
2024-04-23T08:58:22.862Z,1207.00
2024-04-23T08:59:22.890Z,1172.00
2024-04-23T09:00:23.727Z,1129.00
2024-04-23T09:01:22.877Z,1080.00
2024-04-23T09:02:22.902Z,1040.00
2024-04-23T09:03:22.850Z,1028.00
2024-04-23T09:04:22.925Z,994.00
2024-04-23T09:05:24.169Z,964.00
2024-04-23T09:06:23.047Z,893.00
2024-04-23T09:07:28.075Z,856.00
2024-04-23T09:08:24.094Z,850.00
2024-04-23T09:09:23.177Z,844.00
2024-04-23T09:10:23.108Z,785.00
2024-04-23T09:11:23.185Z,808.00
2024-04-23T09:12:23.113Z,804.00
2024-04-23T09:13:23.109Z,735.00
2024-04-23T09:14:23.120Z,730.00
2024-04-23T09:15:23.155Z,792.00
2024-04-23T09:16:23.114Z,850.00
2024-04-23T09:17:23.232Z,866.00
2024-04-23T09:18:23.200Z,895.00
2024-04-23T09:19:23.217Z,957.00
2024-04-23T09:20:23.379Z,966.00
2024-04-23T09:21:24.237Z,945.00
2024-04-23T09:22:23.368Z,888.00
2024-04-23T09:23:23.414Z,868.00
2024-04-23T09:24:23.464Z,849.00
2024-04-23T09:25:24.331Z,832.00
2024-04-23T09:26:23.571Z,814.00
2024-04-23T09:27:23.558Z,799.00
2024-04-23T09:28:24.568Z,793.00
2024-04-23T09:29:23.697Z,787.00
2024-04-23T09:30:26.225Z,789.00
2024-04-23T09:31:23.904Z,787.00
2024-04-23T09:32:23.978Z,780.00
2024-04-23T09:33:24.788Z,773.00
2024-04-23T09:34:24.442Z,771.00
2024-04-23T09:35:24.104Z,768.00
2024-04-23T09:36:24.091Z,766.00
2024-04-23T09:37:24.112Z,767.00
2024-04-23T09:38:24.111Z,764.00
2024-04-23T09:39:24.154Z,766.00
2024-04-23T09:40:24.179Z,761.00
2024-04-23T09:41:24.217Z,749.00
2024-04-23T09:42:24.267Z,746.00
2024-04-23T09:43:24.291Z,740.00
2024-04-23T09:44:24.318Z,739.00
2024-04-23T09:45:24.429Z,737.00
2024-04-23T09:46:24.439Z,733.00
2024-04-23T09:47:24.982Z,733.00
2024-04-23T09:48:24.613Z,732.00
2024-04-23T09:49:24.507Z,730.00
2024-04-23T09:50:24.510Z,730.00
2024-04-23T09:51:24.552Z,727.00
2024-04-23T09:52:27.042Z,725.00
2024-04-23T09:53:25.594Z,721.00
2024-04-23T09:54:24.584Z,718.00
2024-04-23T09:55:24.579Z,712.00
2024-04-23T09:56:24.658Z,708.00
2024-04-23T09:57:24.590Z,707.00
2024-04-23T09:58:28.108Z,707.00
2024-04-23T09:59:24.588Z,706.00
2024-04-23T10:00:24.589Z,702.00
2024-04-23T10:01:24.607Z,699.00
2024-04-23T10:02:24.665Z,698.00
2024-04-23T10:03:24.693Z,693.00
2024-04-23T10:04:26.967Z,690.00
2024-04-23T10:05:24.868Z,688.00
2024-04-23T10:06:24.952Z,683.00
2024-04-23T10:07:24.870Z,680.00
2024-04-23T10:08:24.924Z,680.00
2024-04-23T10:09:24.966Z,682.00
2024-04-23T10:10:25.016Z,680.00
2024-04-23T10:11:25.116Z,679.00
2024-04-23T10:12:25.706Z,775.00
2024-04-23T10:13:25.135Z,708.00
2024-04-23T10:14:25.245Z,717.00
2024-04-23T10:15:25.206Z,876.00
2024-04-23T10:16:25.219Z,888.00
2024-04-23T10:17:25.374Z,903.00
2024-04-23T10:18:25.344Z,926.00
2024-04-23T10:19:25.251Z,893.00
2024-04-23T10:20:25.277Z,894.00
2024-04-23T10:21:25.338Z,895.00
2024-04-23T10:22:25.386Z,838.00
2024-04-23T10:23:25.300Z,851.00
2024-04-23T10:24:25.305Z,856.00
2024-04-23T10:25:25.321Z,858.00
2024-04-23T10:26:25.375Z,843.00
2024-04-23T10:27:25.374Z,849.00
2024-04-23T10:28:25.410Z,847.00
2024-04-23T10:29:25.457Z,848.00
2024-04-23T10:30:25.486Z,841.00
2024-04-23T10:31:25.499Z,835.00
2024-04-23T10:32:25.629Z,831.00
2024-04-23T10:33:25.689Z,810.00
2024-04-23T10:34:25.581Z,808.00
2024-04-23T10:35:25.583Z,803.00
2024-04-23T10:36:25.598Z,804.00
2024-04-23T10:37:25.692Z,815.00
2024-04-23T10:38:25.806Z,831.00
2024-04-23T10:39:25.912Z,847.00
2024-04-23T10:40:25.904Z,891.00
2024-04-23T10:41:25.950Z,935.00
2024-04-23T10:42:25.968Z,935.00
2024-04-23T10:43:26.009Z,948.00
2024-04-23T10:44:26.057Z,960.00
2024-04-23T10:45:26.098Z,991.00
2024-04-23T10:46:26.103Z,1061.00
2024-04-23T10:47:26.202Z,1068.00
2024-04-23T10:48:26.284Z,1074.00
2024-04-23T10:49:26.131Z,1079.00
2024-04-23T10:50:26.176Z,1088.00
2024-04-23T10:51:26.249Z,1095.00
2024-04-23T10:52:26.164Z,1104.00
2024-04-23T10:53:26.204Z,1113.00
2024-04-23T10:54:26.272Z,1122.00
2024-04-23T10:55:26.251Z,1136.00
2024-04-23T10:56:26.255Z,1150.00
2024-04-23T10:57:26.312Z,1168.00
2024-04-23T10:58:26.361Z,1184.00
2024-04-23T10:59:29.870Z,1201.00
2024-04-23T11:00:26.510Z,1280.00
2024-04-23T11:01:26.515Z,1248.00
2024-04-23T11:02:26.650Z,1234.00
2024-04-23T11:03:26.585Z,1230.00
2024-04-23T11:04:26.571Z,1230.00
2024-04-23T11:05:26.519Z,1238.00
2024-04-23T11:06:26.408Z,1249.00
2024-04-23T11:07:27.255Z,1254.00
2024-04-23T11:08:26.446Z,1262.00
2024-04-23T11:09:26.417Z,1266.00
2024-04-23T11:10:26.439Z,1271.00
2024-04-23T11:11:26.680Z,1276.00
2024-04-23T11:12:26.410Z,1279.00
2024-04-23T11:13:26.405Z,1279.00
2024-04-23T11:14:26.400Z,1279.00
2024-04-23T11:15:26.403Z,1279.00
2024-04-23T11:16:26.461Z,1281.00
2024-04-23T11:17:26.557Z,1281.00
2024-04-23T11:18:26.595Z,1282.00
2024-04-23T11:19:26.406Z,1279.00
2024-04-23T11:20:26.402Z,1276.00
2024-04-23T11:21:26.421Z,1275.00
2024-04-23T11:22:26.414Z,1276.00
2024-04-23T11:23:26.407Z,1276.00
2024-04-23T11:24:26.473Z,1276.00
2024-04-23T11:25:26.422Z,1276.00
2024-04-23T11:26:26.422Z,1275.00
2024-04-23T11:27:26.427Z,1275.00
2024-04-23T11:28:26.485Z,1276.00
2024-04-23T11:29:26.554Z,1278.00
2024-04-23T11:30:26.671Z,1278.00
2024-04-23T11:31:26.679Z,1278.00
2024-04-23T11:32:26.802Z,1280.00
2024-04-23T11:33:26.875Z,1279.00
2024-04-23T11:34:26.877Z,1281.00
2024-04-23T11:35:27.042Z,1281.00
2024-04-23T11:36:27.156Z,1280.00
2024-04-23T11:37:27.124Z,1279.00
2024-04-23T11:38:27.139Z,1278.00
2024-04-23T11:39:27.194Z,1279.00
2024-04-23T11:40:27.251Z,1280.00
2024-04-23T11:41:27.788Z,1278.00
2024-04-23T11:42:27.387Z,1276.00
2024-04-23T11:43:27.460Z,1280.00
2024-04-23T11:44:27.519Z,1283.00
2024-04-23T11:45:27.566Z,1282.00
2024-04-23T11:46:27.651Z,1283.00
2024-04-23T11:47:29.107Z,1281.00
2024-04-23T11:48:27.780Z,1282.00
2024-04-23T11:49:27.868Z,1281.00
2024-04-23T11:50:27.875Z,1278.00
2024-04-23T11:51:27.948Z,1276.00
2024-04-23T11:52:27.990Z,1275.00
2024-04-23T11:53:28.075Z,1271.00
2024-04-23T11:54:28.135Z,1267.00
2024-04-23T11:55:28.192Z,1264.00
2024-04-23T11:56:28.322Z,1261.00
2024-04-23T11:57:28.309Z,1261.00
2024-04-23T11:58:28.382Z,1259.00
2024-04-23T11:59:28.434Z,1258.00
2024-04-23T12:00:28.545Z,1258.00
2024-04-23T12:01:28.571Z,1254.00
2024-04-23T12:02:28.633Z,1250.00
2024-04-23T12:03:28.711Z,1247.00
2024-04-23T12:04:28.845Z,1246.00
2024-04-23T12:05:28.972Z,1251.00
2024-04-23T12:06:29.062Z,1254.00
2024-04-23T12:07:29.020Z,1254.00
2024-04-23T12:08:29.042Z,1252.00
2024-04-23T12:09:29.188Z,1250.00
2024-04-23T12:10:29.265Z,1246.00
2024-04-23T12:11:29.280Z,1248.00
2024-04-23T12:12:29.313Z,1252.00
2024-04-23T12:13:29.376Z,1255.00
2024-04-23T12:14:29.794Z,1257.00
2024-04-23T12:15:29.510Z,1256.00
2024-04-23T12:16:29.568Z,1254.00
2024-04-23T12:17:29.705Z,1253.00
2024-04-23T12:18:29.834Z,1251.00
2024-04-23T12:19:29.782Z,1248.00
2024-04-23T12:20:29.847Z,1250.00
2024-04-23T12:21:29.920Z,1251.00